Metar Report
Metar
METAR KVGC 061618Z AUTO 26008G16KT 10SM CLR 02/M10 A2989 A02 6304
METAR KVGC 060256Z AUTO 20006KT 10SM BKN017 OVC023 10/07 A2971 A02 P0002 6303
METAR KVGC 060156Z AUTO 19010G15KT 150V220 10SM BKN019 OVC026 10/07 A2973 A02 6302
METAR KVGC 060056Z AUTO 17009G15KT 10SM OVC019 10/07 A2975 A02 P0001 6301
METAR KVGC 052356Z AUTO 17011G17KT 10SM SCT015 BKN019 OVC070 09/07 A2976 A02 P0001 6300
METAR KVGC 052256Z AUTO 18008G16KT 10SM BKN011 BKN017 OVC060 09/08 A2978 A02 P0001 6299
METAR KVGC 052156Z AUTO 20010G16KT 10SM OVC013 09/07 A2982 A02 6298
METAR KVGC 052056Z AUTO 19012G17KT 10SM BKN011 BKN016 09/07 A2984 A02 P0002 6297
METAR KVGC 051956Z AUTO 17015KT 10SM OVC015 09/07 A2985 A02 P0002 6296
METAR KVGC 051856Z AUTO 17011G18KT 10SM BKN017 BKN023 OVC050 09/07 A2987 A02 P0002 6295
METAR KVGC 051756Z AUTO 18008G15KT 10SM BKN019 OVC026 09/07 A2990 A02 P0001 6294
METAR KVGC 051656Z AUTO 17010KT 10SM OVC017 09/07 A2995 A02 P0001 6293
METAR KVGC 051556Z AUTO 19015G20KT 10SM OVC022 09/06 A2997 A02 6292
METAR KVGC 051456Z AUTO 18013G20KT 10SM OVC024 09/05 A2999 A02 6291
METAR KVGC 051356Z AUTO 18014G22KT 10SM SCT055 BKN070 OVC090 08/04 A2997 A02 6290
METAR KVGC 051256Z AUTO 18018G29KT 10SM SCT032 BKN070 OVC110 08/03 A2997 A02 6289
METAR KVGC 051156Z AUTO 20013G27KT 10SM SCT029 BKN110 08/02 A3002 A02 6288
METAR KVGC 051056Z AUTO 20016G22KT 10SM BKN027 BKN120 08/02 A3005 A02 6287
METAR KVGC 050956Z AUTO 18018G26KT 10SM BKN027 07/02 A3004 A02 6286
METAR KVGC 050856Z AUTO 17014G23KT 10SM SCT025 07/02 A3007 A02 6285
METAR KVGC 050756Z AUTO 18018G25KT 10SM SCT024 07/02 A3009 A02 6284
METAR KVGC 050656Z AUTO 18014G22KT 10SM SCT120 06/02 A3011 A02 6283
METAR KVGC 050556Z AUTO 18015G26KT 10SM BKN022 OVC120 06/02 A3013 A02 6282
METAR KVGC 050456Z AUTO 17017G25KT 10SM SCT022 SCT055 BKN100 06/02 A3015 A02 6281
METAR KVGC 050356Z AUTO 18014G29KT 10SM SCT022 SCT110 06/01 A3017 A02 6280
METAR KVGC 050256Z AUTO 17018G25KT 10SM SCT120 06/01 A3020 A02 6279
METAR KVGC 050156Z AUTO 17018G26KT 10SM SCT100 OVC110 06/M01 A3022 A02 6278
METAR KVGC 050056Z AUTO 17018G24KT 10SM CLR 06/M01 A3023 A02 6277
METAR KVGC 042356Z AUTO 17011G17KT 10SM CLR 06/M01 A3024 A02 6276
METAR KVGC 042256Z AUTO 17011KT 10SM CLR 06/M01 A3025 A02 6275
METAR KVGC 042156Z AUTO 17005KT 10SM CLR 06/M01 A3025 A02 6274
METAR KVGC 042056Z AUTO 17008KT 10SM CLR 07/M01 A3025 A02 6273
METAR KVGC 041956Z AUTO 17009KT 10SM CLR 08/M01 A3027 A02 6272
METAR KVGC 041856Z AUTO 18009KT 10SM CLR 08/M01 A3028 A02 6271
METAR KVGC 041756Z AUTO 17008KT 10SM CLR 08/00 A3029 A02 6270
METAR KVGC 041656Z AUTO 18007KT 10SM CLR 07/00 A3033 A02 6269
METAR KVGC 041556Z AUTO 15005KT 7SM CLR 04/00 A3036 A02 6268
METAR KVGC 041456Z AUTO 00000KT 5SM CLR 01/M01 A3038 A02 6267
METAR KVGC 041356Z AUTO 00000KT 4SM CLR M02/M03 A3038 A02 6266
METAR KVGC 041256Z AUTO 00000KT 4SM CLR M05/M06 A3036 A02 6265
METAR KVGC 041156Z AUTO 00000KT 4SM CLR M05/M06 A3034 A02 6264
METAR KVGC 041056Z AUTO 00000KT 3SM CLR M04/M05 A3032 A02 6263
METAR KVGC 040956Z AUTO 00000KT 3SM CLR M03/M04 A3031 A02 6262
METAR KVGC 040856Z AUTO 00000KT 5SM OVC041 M02/M03 A3031 A02 6261
METAR KVGC 040756Z AUTO 00000KT 5SM BKN041 M02/M03 A3031 A02 6260
METAR KVGC 040656Z AUTO 00000KT 5SM BKN038 OVC044 M02/M03 A3029 A02 6259
METAR KVGC 040556Z AUTO 00000KT 5SM OVC038 M03/M03 A3028 A02 6258
METAR KVGC 040456Z AUTO 00000KT 5SM SCT038 M02/M03 A3027 A02 6257
METAR KVGC 040356Z AUTO 14003KT 4SM BKN038 M03/M04 A3027 A02 6256
METAR KVGC 040256Z AUTO 00000KT 4SM CLR M03/M04 A3025 A02 6255
METAR KVGC 040156Z AUTO 00000KT 4SM CLR M03/M04 A3024 A02 6254
METAR KVGC 040056Z AUTO 00000KT 4SM CLR M03/M03 A3022 A02 6253
METAR KVGC 032356Z AUTO 00000KT 5SM CLR M02/M03 A3021 A02 6252
METAR KVGC 032256Z AUTO 00000KT 7SM CLR M01/M02 A3019 A02 6251
METAR KVGC 032156Z AUTO 00000KT 10SM CLR 01/M01 A3018 A02 6250
METAR KVGC 032056Z AUTO 35003KT 10SM CLR 06/00 A3017 A02 6249
METAR KVGC 031956Z AUTO 36005KT 10SM CLR 07/00 A3015 A02 6248
METAR KVGC 031856Z AUTO 00000KT 10SM SCT029 OVC100 08/00 A3014 A02 6247
METAR KVGC 031756Z AUTO 00000KT 10SM OVC100 07/01 A3014 A02 6246
METAR KVGC 031656Z AUTO 00000KT 10SM BKN100 05/00 A3014 A02 6245
METAR KVGC 031556Z AUTO 00000KT 10SM OVC100 03/M01 A3017 A02 6244
METAR KVGC 031456Z AUTO 00000KT 7SM OVC110 00/M01 A3017 A02 6243
METAR KVGC 031356Z AUTO 00000KT 7SM OVC110 M02/M03 A3017 A02 6242
METAR KVGC 031256Z AUTO 00000KT 7SM SCT110 M03/M04 A3015 A02 6241
METAR KVGC 031156Z AUTO 00000KT 7SM BKN110 M03/M03 A3015 A02 6240
METAR KVGC 031056Z AUTO 00000KT 7SM BKN110 M02/M03 A3014 A02 6239
METAR KVGC 030956Z AUTO 00000KT 10SM OVC110 M02/M03 A3014 A02 6238
METAR KVGC 030856Z AUTO 00000KT 10SM BKN085 OVC120 M02/M03 A3014 A02 6237
METAR KVGC 030756Z AUTO 00000KT 10SM SCT090 OVC120 M02/M03 A3014 A02 6236
METAR KVGC 030656Z AUTO 00000KT 10SM OVC110 M02/M03 A3015 A02 6235
METAR KVGC 030556Z AUTO 13004KT 10SM OVC110 M02/M03 A3016 A02 6234
METAR KVGC 030456Z AUTO 00000KT 10SM CLR M03/M03 A3017 A02 6233
METAR KVGC 030356Z AUTO 00000KT 7SM CLR M02/M03 A3018 A02 6232
METAR KVGC 030256Z AUTO 00000KT 10SM OVC100 M01/M03 A3018 A02 6231
METAR KVGC 030156Z AUTO 00000KT 10SM OVC100 M02/M03 A3019 A02 6230
METAR KVGC 030056Z AUTO 00000KT 10SM CLR M02/M03 A3018 A02 6229
METAR KVGC 022356Z AUTO 00000KT 10SM CLR M01/M02 A3017 A02 6228
METAR KVGC 022256Z AUTO 00000KT 10SM SCT120 01/M02 A3014 A02 6227
METAR KVGC 022156Z AUTO 17004KT 10SM SCT100 03/M02 A3015 A02 6226
METAR KVGC 022056Z AUTO 16004KT 10SM BKN075 OVC085 03/M01 A3019 A02 6225
METAR KVGC 021956Z AUTO 16003KT 10SM BKN043 OVC110 04/M01 A3018 A02 6224
METAR KVGC 021856Z AUTO 17003KT 10SM BKN044 04/M01 A3019 A02 6223
METAR KVGC 021756Z AUTO 17003KT 10SM CLR 03/M01 A3019 A02 6222
METAR KVGC 021656Z AUTO 16005KT 10SM CLR 02/M02 A3020 A02 6221
METAR KVGC 021556Z AUTO 15005KT 10SM SCT044 01/M01 A3023 A02 6220
METAR KVGC 021456Z AUTO 14003KT 7SM OVC038 M01/M02 A3025 A02 6219
METAR KVGC 021356Z AUTO 00000KT 7SM OVC036 M02/M03 A3026 A02 6218
METAR KVGC 021256Z AUTO 00000KT 7SM OVC034 M03/M04 A3026 A02 6217
METAR KVGC 021156Z AUTO 00000KT 10SM CLR M03/M04 A3025 A02 6216
METAR KVGC 021056Z AUTO 15003KT 7SM SCT037 M03/M04 A3026 A02 6215
METAR KVGC 020956Z AUTO 00000KT 7SM CLR M03/M04 A3025 A02 6214
METAR KVGC 020856Z AUTO 15003KT 7SM OVC036 M03/M04 A3027 A02 6213
METAR KVGC 020756Z AUTO 00000KT 7SM CLR M03/M04 A3026 A02 6212
METAR KVGC 020656Z AUTO 00000KT 10SM CLR M04/M04 A3026 A02 6211
METAR KVGC 020556Z AUTO 00000KT 7SM CLR M04/M05 A3024 A02 6210
METAR KVGC 020456Z AUTO 00000KT 7SM CLR M04/M04 A3025 A02 6209
METAR KVGC 020356Z AUTO 00000KT 7SM CLR M03/M04 A3025 A02 6208
METAR KVGC 020256Z AUTO 00000KT 10SM CLR M03/M04 A3025 A02 6207
METAR KVGC 020156Z AUTO 00000KT 10SM CLR M02/M03 A3027 A02 6206
METAR KVGC 020056Z AUTO 00000KT 10SM CLR M02/M02 A3027 A02 6205
METAR KVGC 012356Z AUTO 00000KT 10SM CLR 00/M02 A3026 A02 6204
METAR KVGC 012256Z AUTO 00000KT 10SM OVC032 03/M01 A3024 A02 6203
METAR KVGC 012156Z AUTO 33003KT 10SM OVC032 03/M01 A3024 A02 6202
METAR KVGC 012056Z AUTO 00000KT 10SM SCT024 OVC032 03/M01 A3022 A02 6201
METAR KVGC 011956Z AUTO 33004KT 10SM OVC033 03/M01 A3021 A02 6200
METAR KVGC 011856Z AUTO 33005KT 10SM BKN018 BKN022 OVC033 03/00 A3020 A02 6199
METAR KVGC 011756Z AUTO 34004KT 10SM BKN017 BKN022 OVC040 04/00 A3019 A02 6198
METAR KVGC 011656Z AUTO 35004KT 7SM SCT012 BKN023 OVC041 03/01 A3019 A02 P0001 6197
METAR KVGC 011556Z AUTO 00000KT 7SM BKN018 BKN025 OVC045 03/01 A3020 A02 6196
METAR KVGC 011456Z AUTO 32005KT 10SM SCT021 SCT029 OVC043 04/00 A3019 A02 6195
METAR KVGC 011356Z AUTO 32005KT 10SM BKN028 OVC037 03/00 A3017 A02 6194
METAR KVGC 011256Z AUTO 33005KT 10SM BKN016 BKN026 OVC041 03/00 A3015 A02 6193
METAR KVGC 011156Z AUTO 32005KT 10SM SCT019 SCT024 OVC041 03/00 A3012 A02 6192
METAR KVGC 011056Z AUTO 31004KT 10SM OVC021 04/00 A3009 A02 6191
METAR KVGC 010956Z AUTO 31005KT 10SM BKN021 BKN027 OVC050 04/00 A3007 A02 6190
METAR KVGC 010856Z AUTO 30005KT 10SM SCT021 OVC050 04/01 A3005 A02 6189
METAR KVGC 010756Z AUTO 30006KT 270V330 10SM OVC050 04/01 A3003 A02 6188
METAR KVGC 010656Z AUTO 00000KT 10SM OVC050 04/01 A3001 A02 6187
METAR KVGC 010556Z AUTO 00000KT 10SM SCT022 BKN055 04/01 A3000 A02 6186
METAR KVGC 010456Z AUTO 30004KT 10SM SCT029 SCT049 OVC055 04/01 A2999 A02 6185
METAR KVGC 010356Z AUTO 31007KT 300V360 10SM BKN018 OVC024 05/02 A2999 A02 6184